weather.gov     
National Weather Service

Terminal Aerodrome Forecast
NWS Homepage
This page is being discontinued on March 12, 2014.
The same data is available at this site. Please update your bookmarks.
Thank you, and we apologize for the inconvenience.
Please send an email to SR-SRH.Webmaster@noaa.gov with any concerns.


Current Version
Previous Version:    01  02  03  04  05  06  07  08  09  10  11  12  13  14  15  16  17  18  19  20  21  22  23  24  25  
[Printable]
616
FTUS43 KLSX 210500
TAFSUS
TAF
KSUS 210520Z 2106/2206 16005KT P6SM SCT150 BKN250
     FM211200 22006KT P6SM VCSH FEW060 SCT120
     FM211800 25008KT 5SM -SHRA VCTS SCT060CB BKN120
     FM220300 29008KT P6SM SCT060 BKN100=


U.S. Dept. of Commerce
NOAA National Weather Service
1325 East West Highway
Silver Spring, MD 20910
E-mail: w-nws.webmaster@noaa.gov
Page last modified: May 16, 2007
NATIONAL WEATHER SERVICE: for Safety, for Work, for Fun - FOR LIFE